createdAt,value
2022-12-14T00:01:48.919Z,3.80
2022-12-14T00:04:17.360Z,3.80
2022-12-14T00:06:45.070Z,3.80
2022-12-14T00:09:12.359Z,3.80
2022-12-14T00:11:39.656Z,3.90
2022-12-14T00:14:12.180Z,3.90
2022-12-14T00:16:39.408Z,3.90
2022-12-14T00:19:06.669Z,3.90
2022-12-14T00:21:34.406Z,3.90
2022-12-14T00:24:01.818Z,3.90
2022-12-14T00:26:31.445Z,3.90
2022-12-14T00:29:00.921Z,3.90
2022-12-14T00:31:29.135Z,3.90
2022-12-14T00:33:56.636Z,3.90
2022-12-14T00:36:24.042Z,4.00
2022-12-14T00:38:51.430Z,4.00
2022-12-14T00:41:18.630Z,3.90
2022-12-14T00:43:49.703Z,4.00
2022-12-14T00:46:18.104Z,3.90
2022-12-14T00:48:48.288Z,4.00
2022-12-14T00:51:15.560Z,4.00
2022-12-14T00:53:44.691Z,3.90
2022-12-14T00:56:12.219Z,3.90
2022-12-14T00:58:53.476Z,3.80
2022-12-14T01:01:23.007Z,3.80
2022-12-14T01:03:50.975Z,3.80
2022-12-14T01:06:21.429Z,3.80
2022-12-14T01:08:49.405Z,3.70
2022-12-14T01:11:17.002Z,3.70
2022-12-14T01:13:44.365Z,3.70
2022-12-14T01:16:14.593Z,3.70
2022-12-14T01:18:43.478Z,3.70
2022-12-14T01:21:12.248Z,3.60
2022-12-14T01:23:44.153Z,3.60
2022-12-14T01:26:15.584Z,3.70
2022-12-14T01:28:43.484Z,3.70
2022-12-14T01:31:20.035Z,3.70
2022-12-14T01:33:48.387Z,3.80
2022-12-14T01:36:18.963Z,3.80
2022-12-14T01:38:46.997Z,3.80
2022-12-14T01:41:36.761Z,3.80
2022-12-14T01:44:24.282Z,3.80
2022-12-14T01:46:56.709Z,3.90
2022-12-14T01:49:36.738Z,3.90
2022-12-14T01:52:17.207Z,3.90
2022-12-14T01:54:57.254Z,3.90
2022-12-14T01:57:37.238Z,3.90
2022-12-14T02:00:07.715Z,4.00
2022-12-14T02:02:41.631Z,4.00
2022-12-14T02:05:11.032Z,4.00
2022-12-14T02:07:41.228Z,4.10
2022-12-14T02:10:09.369Z,4.10
2022-12-14T02:12:44.887Z,4.10
2022-12-14T02:15:14.776Z,4.10
2022-12-14T02:17:44.973Z,4.10
2022-12-14T02:20:14.178Z,4.10
2022-12-14T02:23:22.303Z,4.10
2022-12-14T02:26:14.336Z,4.10
2022-12-14T02:29:19.346Z,4.00
2022-12-14T02:32:30.577Z,4.00
2022-12-14T02:35:22.322Z,4.00
2022-12-14T02:37:58.293Z,3.90
2022-12-14T02:40:55.444Z,4.00
2022-12-14T02:43:42.171Z,4.10
2022-12-14T02:46:09.468Z,4.30
2022-12-14T02:48:49.501Z,4.30
2022-12-14T02:51:41.008Z,4.40
2022-12-14T02:54:36.447Z,4.40
2022-12-14T02:57:36.403Z,4.30
2022-12-14T03:00:05.896Z,4.20
2022-12-14T03:02:42.396Z,4.20
2022-12-14T03:05:10.449Z,4.10
2022-12-14T03:07:52.699Z,4.10
2022-12-14T03:10:45.866Z,4.10
2022-12-14T03:13:23.794Z,4.20
2022-12-14T03:16:15.425Z,4.20
2022-12-14T03:18:54.007Z,4.10
2022-12-14T03:21:31.972Z,4.20
2022-12-14T03:24:02.420Z,4.10
2022-12-14T03:26:35.834Z,4.10
2022-12-14T03:29:14.490Z,4.10
2022-12-14T03:32:05.537Z,4.00
2022-12-14T03:35:28.133Z,4.00
2022-12-14T03:38:01.829Z,4.00
2022-12-14T03:40:37.734Z,4.00
2022-12-14T03:43:25.138Z,3.90
2022-12-14T03:45:55.578Z,3.90
2022-12-14T03:48:30.628Z,3.90
2022-12-14T03:51:10.093Z,3.90
2022-12-14T03:53:57.540Z,3.90
2022-12-14T03:56:39.014Z,3.90
2022-12-14T03:59:17.753Z,3.90
2022-12-14T04:01:54.474Z,4.00
2022-12-14T04:04:32.838Z,4.00
2022-12-14T04:07:15.670Z,4.00
2022-12-14T04:10:29.836Z,4.10
2022-12-14T04:13:25.668Z,4.10
2022-12-14T04:16:17.392Z,4.10
2022-12-14T04:19:02.079Z,4.00
2022-12-14T04:21:48.231Z,3.90
2022-12-14T04:24:42.468Z,3.90
2022-12-14T04:27:34.449Z,3.90
2022-12-14T04:30:03.208Z,3.90
2022-12-14T04:32:33.362Z,4.00
2022-12-14T04:35:21.165Z,4.10
2022-12-14T04:38:37.723Z,4.00
2022-12-14T04:41:09.939Z,4.00
2022-12-14T04:43:42.303Z,3.90
2022-12-14T04:46:13.769Z,3.90
2022-12-14T04:48:54.241Z,3.80
2022-12-14T04:51:37.991Z,3.90
2022-12-14T04:54:25.254Z,4.00
2022-12-14T04:57:44.715Z,4.10
2022-12-14T05:00:13.090Z,4.10
2022-12-14T05:02:50.439Z,4.10
2022-12-14T05:05:22.352Z,4.10
2022-12-14T05:07:53.212Z,4.00
2022-12-14T05:10:47.012Z,4.00
2022-12-14T05:13:17.425Z,3.90
2022-12-14T05:15:57.631Z,3.90
2022-12-14T05:18:25.827Z,4.00
2022-12-14T05:20:55.340Z,4.00
2022-12-14T05:23:48.283Z,4.00
2022-12-14T05:26:15.539Z,4.10
2022-12-14T05:28:48.810Z,4.10
2022-12-14T05:31:17.656Z,4.00
2022-12-14T05:33:44.944Z,4.00
2022-12-14T05:36:12.260Z,4.00
2022-12-14T05:38:43.456Z,3.90
2022-12-14T05:41:10.745Z,4.00
2022-12-14T05:43:38.055Z,4.00
2022-12-14T05:46:05.808Z,3.90
2022-12-14T05:48:33.794Z,4.00
2022-12-14T05:51:09.190Z,4.00
2022-12-14T05:53:36.825Z,4.10
2022-12-14T05:56:07.323Z,4.10
2022-12-14T05:58:35.546Z,4.10
2022-12-14T06:01:05.967Z,4.10
2022-12-14T06:03:33.588Z,4.00
2022-12-14T06:08:46.771Z,4.00
2022-12-14T06:11:24.399Z,4.10
2022-12-14T06:13:51.900Z,4.00
2022-12-14T06:16:22.130Z,4.00
2022-12-14T06:21:35.873Z,4.00
2022-12-14T06:24:06.322Z,4.00
2022-12-14T06:26:40.873Z,4.00
2022-12-14T06:29:13.769Z,4.00
2022-12-14T06:31:41.449Z,4.00
2022-12-14T06:34:12.224Z,4.00
2022-12-14T06:36:41.934Z,4.00
2022-12-14T06:39:13.100Z,4.00
2022-12-14T06:41:41.381Z,3.90
2022-12-14T06:44:13.200Z,3.90
2022-12-14T06:46:41.547Z,3.90
2022-12-14T06:49:14.231Z,3.90
2022-12-14T06:51:42.506Z,3.90
2022-12-14T06:54:12.130Z,3.90
2022-12-14T06:56:40.626Z,3.90
2022-12-14T06:59:11.254Z,4.00
2022-12-14T07:01:40.055Z,3.90
2022-12-14T07:04:08.603Z,3.90
2022-12-14T07:06:42.457Z,3.90
2022-12-14T07:09:14.120Z,3.90
2022-12-14T07:11:41.437Z,3.90
2022-12-14T07:14:17.405Z,3.90
2022-12-14T07:19:49.109Z,4.00
2022-12-14T07:22:36.847Z,4.00
2022-12-14T07:25:04.646Z,4.00
2022-12-14T07:27:31.918Z,4.00
2022-12-14T07:32:54.090Z,4.00
2022-12-14T07:35:21.343Z,4.10
2022-12-14T07:37:49.682Z,4.10
2022-12-14T07:40:19.850Z,4.10
2022-12-14T07:42:50.731Z,4.10
2022-12-14T07:45:19.454Z,4.10
2022-12-14T07:47:46.840Z,4.10
2022-12-14T07:50:14.191Z,4.10
2022-12-14T07:52:45.115Z,4.10
2022-12-14T07:55:12.449Z,4.10
2022-12-14T07:57:39.852Z,4.10
2022-12-14T08:00:13.818Z,4.20
2022-12-14T08:02:41.384Z,4.20
2022-12-14T08:08:27.316Z,4.20
2022-12-14T08:11:06.793Z,4.30
2022-12-14T08:13:34.778Z,4.30
2022-12-14T08:16:04.720Z,4.30
2022-12-14T08:18:37.477Z,4.40
2022-12-14T08:21:10.090Z,4.40
2022-12-14T08:23:37.934Z,4.40
2022-12-14T08:26:06.383Z,4.40
2022-12-14T08:28:35.434Z,4.50
2022-12-14T08:31:16.277Z,4.50
2022-12-14T08:33:47.016Z,4.50
2022-12-14T08:36:16.978Z,4.50
2022-12-14T08:38:57.751Z,4.60
2022-12-14T08:41:26.428Z,4.60
2022-12-14T08:43:56.254Z,4.70
2022-12-14T08:46:25.528Z,4.70
2022-12-14T08:48:59.357Z,4.70
2022-12-14T08:51:27.994Z,4.70
2022-12-14T08:53:56.315Z,4.80
2022-12-14T08:56:26.811Z,4.90
2022-12-14T08:59:29.972Z,4.90
2022-12-14T09:04:47.328Z,4.90
2022-12-14T09:07:17.039Z,4.90
2022-12-14T09:09:47.481Z,4.90
2022-12-14T09:12:20.910Z,4.90
2022-12-14T09:14:49.553Z,5.00
2022-12-14T09:17:17.898Z,5.00
2022-12-14T09:19:45.297Z,5.10
2022-12-14T09:22:13.403Z,5.20
2022-12-14T09:24:40.864Z,5.30
2022-12-14T09:27:10.498Z,5.30
2022-12-14T09:29:40.556Z,5.30
2022-12-14T09:32:08.149Z,5.30
2022-12-14T09:34:35.800Z,5.30
2022-12-14T09:37:07.328Z,5.30
2022-12-14T09:39:35.183Z,5.30
2022-12-14T09:42:10.177Z,5.30
2022-12-14T09:44:46.434Z,5.40
2022-12-14T09:47:17.846Z,5.40
2022-12-14T09:50:07.237Z,5.40
2022-12-14T09:52:40.299Z,5.40
2022-12-14T09:55:47.551Z,5.40
2022-12-14T09:58:15.124Z,5.50
2022-12-14T10:00:53.363Z,5.60
2022-12-14T10:03:48.550Z,5.60
2022-12-14T10:06:21.712Z,5.50
2022-12-14T10:09:21.212Z,5.50
2022-12-14T10:11:57.398Z,5.70
2022-12-14T10:15:23.239Z,5.80
2022-12-14T10:19:18.717Z,6.00
2022-12-14T10:21:53.032Z,6.10
2022-12-14T10:24:24.195Z,6.10
2022-12-14T10:26:55.863Z,6.20
2022-12-14T10:29:34.856Z,6.20
2022-12-14T10:32:39.082Z,6.30
2022-12-14T10:35:40.401Z,6.30
2022-12-14T10:38:36.572Z,6.30
2022-12-14T10:41:15.438Z,6.30
2022-12-14T10:43:59.303Z,6.40
2022-12-14T10:46:37.707Z,6.30
2022-12-14T10:49:17.201Z,6.30
2022-12-14T10:52:12.247Z,6.20
2022-12-14T10:54:47.128Z,6.10
2022-12-14T10:57:19.963Z,6.20
2022-12-14T11:00:05.630Z,6.30
2022-12-14T11:02:39.626Z,6.20
2022-12-14T11:05:18.260Z,6.30
2022-12-14T11:07:49.600Z,6.40
2022-12-14T11:10:37.083Z,6.40
2022-12-14T11:13:13.523Z,6.50
2022-12-14T11:16:04.979Z,6.70
2022-12-14T11:18:37.360Z,6.70
2022-12-14T11:21:06.082Z,6.80
2022-12-14T11:23:45.908Z,6.70
2022-12-14T11:26:27.871Z,6.60
2022-12-14T11:28:58.758Z,6.60
2022-12-14T11:31:55.298Z,6.50
2022-12-14T11:34:37.794Z,6.60
2022-12-14T11:37:23.051Z,6.60
2022-12-14T11:39:53.108Z,6.80
2022-12-14T11:42:21.480Z,6.80
2022-12-14T11:44:49.996Z,6.90
2022-12-14T11:47:23.483Z,6.90
2022-12-14T11:49:54.908Z,7.00
2022-12-14T11:52:28.833Z,7.00
2022-12-14T11:55:01.622Z,7.00
2022-12-14T11:57:34.250Z,7.20
2022-12-14T12:00:22.775Z,7.30
2022-12-14T12:03:08.665Z,7.20
2022-12-14T12:05:42.953Z,7.20
2022-12-14T12:08:26.759Z,7.30
2022-12-14T12:11:02.126Z,7.20
2022-12-14T12:13:35.435Z,7.20
2022-12-14T12:16:08.663Z,7.20
2022-12-14T12:18:53.914Z,7.20
2022-12-14T12:21:33.349Z,7.20
2022-12-14T12:24:41.661Z,7.30
2022-12-14T12:27:18.869Z,7.30
2022-12-14T12:29:51.632Z,7.20
2022-12-14T12:32:27.480Z,7.20
2022-12-14T12:35:11.299Z,7.20
2022-12-14T12:37:47.823Z,7.10
2022-12-14T12:40:22.385Z,7.10
2022-12-14T12:43:28.258Z,7.20
2022-12-14T12:46:30.370Z,7.30
2022-12-14T12:49:12.854Z,7.20
2022-12-14T12:51:54.285Z,7.30
2022-12-14T12:54:32.442Z,7.30
2022-12-14T12:57:02.464Z,7.40
2022-12-14T12:59:29.614Z,7.40
2022-12-14T13:02:31.619Z,7.40
2022-12-14T13:05:16.551Z,7.50
2022-12-14T13:08:06.538Z,7.50
2022-12-14T13:10:50.562Z,7.60
2022-12-14T13:13:30.642Z,7.40
2022-12-14T13:16:10.554Z,7.40
2022-12-14T13:21:50.049Z,7.20
2022-12-14T13:24:20.364Z,7.10
2022-12-14T13:27:12.300Z,7.10
2022-12-14T13:30:09.722Z,7.10
2022-12-14T13:33:09.123Z,7.10
2022-12-14T13:35:45.478Z,7.10
2022-12-14T13:38:33.667Z,7.20
2022-12-14T13:41:07.475Z,7.20
2022-12-14T13:43:52.921Z,7.20
2022-12-14T13:46:21.866Z,7.20
2022-12-14T13:48:51.839Z,7.20
2022-12-14T13:51:37.409Z,7.20
2022-12-14T13:54:27.788Z,7.20
2022-12-14T13:57:08.172Z,7.20
2022-12-14T13:59:41.453Z,7.10
2022-12-14T14:02:31.942Z,7.10
2022-12-14T14:05:21.452Z,7.10
2022-12-14T14:08:32.177Z,7.20
2022-12-14T14:11:39.168Z,7.20
2022-12-14T14:14:38.001Z,7.10
2022-12-14T14:17:27.123Z,7.00
2022-12-14T14:19:56.873Z,7.00
2022-12-14T14:22:29.891Z,7.00
2022-12-14T14:25:01.409Z,7.00
2022-12-14T14:27:50.630Z,6.90
2022-12-14T14:30:29.556Z,6.90
2022-12-14T14:33:48.044Z,6.90
2022-12-14T14:36:33.375Z,6.90
2022-12-14T14:39:03.109Z,7.00
2022-12-14T14:41:39.953Z,7.00
2022-12-14T14:44:27.983Z,7.00
2022-12-14T14:46:57.252Z,7.00
2022-12-14T14:49:39.429Z,7.00
2022-12-14T14:52:37.608Z,7.00
2022-12-14T14:55:53.200Z,7.00
2022-12-14T14:58:32.040Z,7.00
2022-12-14T15:01:08.080Z,6.90
2022-12-14T15:04:00.780Z,6.80
2022-12-14T15:06:43.998Z,6.80
2022-12-14T15:09:33.136Z,6.80
2022-12-14T15:12:18.460Z,6.80
2022-12-14T15:14:52.840Z,6.80
2022-12-14T15:17:23.987Z,6.80
2022-12-14T15:20:13.216Z,6.80
2022-12-14T15:22:43.473Z,6.80
2022-12-14T15:25:17.286Z,6.80
2022-12-14T15:27:46.506Z,6.70
2022-12-14T15:30:18.875Z,6.70
2022-12-14T15:32:57.880Z,6.70
2022-12-14T15:35:33.123Z,6.80
2022-12-14T15:38:07.629Z,6.70
2022-12-14T15:40:35.549Z,6.70
2022-12-14T15:43:30.707Z,6.70
2022-12-14T15:46:04.312Z,6.60
2022-12-14T15:48:34.584Z,6.60
2022-12-14T15:51:05.199Z,6.60
2022-12-14T15:53:39.583Z,6.60
2022-12-14T15:56:21.957Z,6.60
2022-12-14T15:58:49.380Z,6.50
2022-12-14T16:01:43.431Z,6.40
2022-12-14T16:04:16.711Z,6.40
2022-12-14T16:06:51.253Z,6.40
2022-12-14T16:09:27.791Z,6.40
2022-12-14T16:19:13.958Z,6.50
2022-12-14T16:21:50.909Z,6.40
2022-12-14T16:24:26.475Z,6.50
2022-12-14T16:26:59.311Z,6.40
2022-12-14T16:29:32.305Z,6.40
2022-12-14T16:32:17.632Z,6.50
2022-12-14T16:35:00.202Z,6.40
2022-12-14T16:37:33.010Z,6.40
2022-12-14T16:40:01.006Z,6.40
2022-12-14T16:42:31.809Z,6.40
2022-12-14T16:44:59.082Z,6.40
2022-12-14T16:47:46.797Z,6.40
2022-12-14T16:50:55.976Z,6.40
2022-12-14T16:53:20.906Z,6.30
2022-12-14T16:56:03.912Z,6.30
2022-12-14T16:58:31.843Z,6.30
2022-12-14T17:01:06.199Z,6.30
2022-12-14T17:03:43.080Z,6.30
2022-12-14T17:06:27.974Z,6.20
2022-12-14T17:08:55.324Z,6.20
2022-12-14T17:14:03.898Z,6.10
2022-12-14T17:16:33.252Z,6.10
2022-12-14T17:19:02.349Z,6.00
2022-12-14T17:21:30.061Z,5.90
2022-12-14T17:23:57.889Z,6.00
2022-12-14T17:26:30.844Z,5.90
2022-12-14T17:28:58.573Z,5.90
2022-12-14T17:31:41.852Z,5.80
2022-12-14T17:34:16.963Z,5.80
2022-12-14T17:36:50.339Z,5.80
2022-12-14T17:39:45.619Z,5.80
2022-12-14T17:42:15.108Z,5.80
2022-12-14T17:44:45.870Z,5.80
2022-12-14T17:47:14.024Z,5.80
2022-12-14T17:49:42.284Z,5.70
2022-12-14T17:52:23.756Z,5.70
2022-12-14T17:55:01.331Z,5.70
2022-12-14T17:57:28.628Z,5.60
2022-12-14T18:00:14.363Z,5.60
2022-12-14T18:02:42.524Z,5.60
2022-12-14T18:05:18.607Z,5.60
2022-12-14T18:07:45.985Z,5.70
2022-12-14T18:10:18.369Z,5.70
2022-12-14T18:12:45.729Z,5.60
2022-12-14T18:15:23.331Z,5.70
2022-12-14T18:17:51.604Z,5.70
2022-12-14T18:20:20.620Z,5.70
2022-12-14T18:22:50.016Z,5.70
2022-12-14T18:25:31.894Z,5.70
2022-12-14T18:28:01.145Z,5.80
2022-12-14T18:30:32.125Z,5.80
2022-12-14T18:33:04.279Z,5.80
2022-12-14T18:35:33.193Z,5.70
2022-12-14T18:38:00.724Z,5.90
2022-12-14T18:40:30.178Z,5.80
2022-12-14T18:43:00.304Z,5.80
2022-12-14T18:45:30.353Z,5.70
2022-12-14T18:47:59.045Z,5.70
2022-12-14T18:50:27.237Z,5.60
2022-12-14T18:52:58.440Z,5.60
2022-12-14T18:55:28.876Z,5.50
2022-12-14T18:57:58.183Z,5.50
2022-12-14T19:00:29.251Z,5.50
2022-12-14T19:02:57.803Z,5.60
2022-12-14T19:05:26.533Z,5.50
2022-12-14T19:07:55.561Z,5.50
2022-12-14T19:10:25.739Z,5.50
2022-12-14T19:12:53.353Z,5.50
2022-12-14T19:15:32.479Z,5.50
2022-12-14T19:18:00.448Z,5.50
2022-12-14T19:20:29.369Z,5.60
2022-12-14T19:22:57.436Z,5.60
2022-12-14T19:25:25.147Z,5.60
2022-12-14T19:30:46.277Z,5.60
2022-12-14T19:33:14.982Z,5.60
2022-12-14T19:35:43.077Z,5.60
2022-12-14T19:38:14.530Z,5.60
2022-12-14T19:40:42.809Z,5.60
2022-12-14T19:43:10.266Z,5.60
2022-12-14T19:45:39.515Z,5.60
2022-12-14T19:48:12.714Z,5.60
2022-12-14T19:50:40.499Z,5.60
2022-12-14T19:53:07.906Z,5.60
2022-12-14T19:55:35.506Z,5.60
2022-12-14T19:58:02.908Z,5.50
2022-12-14T20:00:30.946Z,5.50
2022-12-14T20:02:58.361Z,5.50
2022-12-14T20:05:25.886Z,5.40
2022-12-14T20:07:53.207Z,5.40
2022-12-14T20:10:20.514Z,5.40
2022-12-14T20:12:47.818Z,5.40
2022-12-14T20:15:15.201Z,5.30
2022-12-14T20:17:42.465Z,5.20
2022-12-14T20:20:10.408Z,5.20
2022-12-14T20:22:37.632Z,5.10
2022-12-14T20:25:09.444Z,5.10
2022-12-14T20:27:40.619Z,5.00
2022-12-14T20:30:09.356Z,5.00
2022-12-14T20:32:36.703Z,5.00
2022-12-14T20:35:06.309Z,5.10
2022-12-14T20:37:33.611Z,5.10
2022-12-14T20:40:00.990Z,5.00
2022-12-14T20:42:28.320Z,5.00
2022-12-14T20:44:57.085Z,4.90
2022-12-14T20:47:24.401Z,4.80
2022-12-14T20:49:53.989Z,4.80
2022-12-14T20:52:21.357Z,4.80
2022-12-14T20:54:49.047Z,4.70
2022-12-14T20:57:16.483Z,4.70
2022-12-14T20:59:43.742Z,4.70
2022-12-14T21:02:17.036Z,4.60
2022-12-14T21:04:44.552Z,4.60
2022-12-14T21:07:12.170Z,4.50
2022-12-14T21:09:39.575Z,4.50
2022-12-14T21:12:20.937Z,4.50
2022-12-14T21:14:52.970Z,4.50
2022-12-14T21:17:25.891Z,4.40
2022-12-14T21:19:58.418Z,4.40
2022-12-14T21:22:30.849Z,4.40
2022-12-14T21:25:03.757Z,4.40
2022-12-14T21:27:33.615Z,4.40
2022-12-14T21:30:01.121Z,4.30
2022-12-14T21:32:29.103Z,4.30
2022-12-14T21:34:56.836Z,4.30
2022-12-14T21:37:26.517Z,4.20
2022-12-14T21:39:56.165Z,4.20
2022-12-14T21:42:24.650Z,4.20
2022-12-14T21:44:53.601Z,4.20
2022-12-14T21:47:24.378Z,4.20
2022-12-14T21:49:52.054Z,4.10
2022-12-14T21:52:22.934Z,4.10
2022-12-14T21:54:50.576Z,4.00
2022-12-14T21:57:49.845Z,3.90
2022-12-14T22:00:19.104Z,3.80
2022-12-14T22:02:49.889Z,3.80
2022-12-14T22:05:42.952Z,3.80
2022-12-14T22:08:10.617Z,3.80
2022-12-14T22:10:47.144Z,3.80
2022-12-14T22:13:14.580Z,3.80
2022-12-14T22:16:08.671Z,3.90
2022-12-14T22:18:36.311Z,3.80
2022-12-14T22:21:09.074Z,3.80
2022-12-14T22:23:43.373Z,3.70
2022-12-14T22:26:11.310Z,3.80
2022-12-14T22:28:38.549Z,3.80
2022-12-14T22:31:06.334Z,3.70
2022-12-14T22:33:34.371Z,3.80
2022-12-14T22:36:10.740Z,3.90
2022-12-14T22:38:38.154Z,3.90
2022-12-14T22:41:05.983Z,3.90
2022-12-14T22:43:36.966Z,3.90
2022-12-14T22:46:05.475Z,3.80
2022-12-14T22:48:34.753Z,3.80
2022-12-14T22:51:04.886Z,3.80
2022-12-14T22:53:32.604Z,3.70
2022-12-14T22:56:11.272Z,3.80
2022-12-14T22:58:40.945Z,3.70
2022-12-14T23:01:08.494Z,3.60
2022-12-14T23:03:36.464Z,3.70
2022-12-14T23:06:04.545Z,3.70
2022-12-14T23:08:32.216Z,3.60
2022-12-14T23:11:18.091Z,3.60
2022-12-14T23:14:04.132Z,3.60
2022-12-14T23:16:50.352Z,3.70
2022-12-14T23:19:36.159Z,3.60
2022-12-14T23:22:25.545Z,3.60
2022-12-14T23:25:11.606Z,3.50
2022-12-14T23:27:57.776Z,3.50
2022-12-14T23:30:43.522Z,3.50
2022-12-14T23:33:29.776Z,3.50
2022-12-14T23:36:19.922Z,3.50
2022-12-14T23:39:05.913Z,3.40
2022-12-14T23:41:51.910Z,3.40
2022-12-14T23:44:38.003Z,3.30
2022-12-14T23:47:24.103Z,3.40
2022-12-14T23:50:09.958Z,3.40
2022-12-14T23:52:55.961Z,3.40
2022-12-14T23:55:41.710Z,3.40
2022-12-14T23:58:28.242Z,3.40
